Time;durP1;ratioP1;P1;durP2;ratioP2;P2;SDS_P1;SDS_P2;PMS_P1;PMS_P2;Temp;Humidity;BMP_temperature;BMP_pressure;BME280_temperature;BME280_humidity;BME280_pressure;Samples;Min_cycle;Max_cycle;Signal;HPM_P1;HPM_P2
2021/05/28 00:00:07;;;;;;;0.20;0.20;;;;;;;7.95;88.28;101311.47;5018032;28;20057;-84
2021/05/28 00:03:33;;;;;;;0.30;0.30;;;;;;;7.91;89.14;101324.72;5026357;28;20041;-85
2021/05/28 00:06:07;;;;;;;0.30;0.30;;;;;;;7.83;89.08;101327.84;5031123;28;20049;-85
2021/05/28 00:08:34;;;;;;;0.77;0.35;;;;;;;7.73;88.67;101323.03;5019479;28;20046;-85
2021/05/28 00:11:02;;;;;;;;;;;;;;;7.68;89.37;101338.38;5027465;28;20060;-86
2021/05/28 00:13:49;;;;;;;;;;;;;;;7.67;89.07;101337.56;5017160;28;19925;-86
2021/05/28 00:16:16;;;;;;;0.30;0.30;;;;;;;7.58;88.66;101326.31;5030145;28;19925;-85
2021/05/28 00:22:11;;;;;;;0.40;0.40;;;;;;;7.45;88.93;101338.25;5020111;28;20386;-84
2021/05/28 00:25:11;;;;;;;0.30;0.30;;;;;;;7.47;89.47;101344.28;5027989;28;20061;-85
2021/05/28 00:27:58;;;;;;;0.20;0.20;;;;;;;7.34;89.37;101333.72;5024497;28;20045;-85
2021/05/28 00:31:19;;;;;;;0.30;0.30;;;;;;;7.34;89.10;101344.56;5021789;28;20046;-85
2021/05/28 00:33:47;;;;;;;0.20;0.20;;;;;;;7.36;89.08;101357.84;5027907;28;20065;-85
2021/05/28 00:36:15;;;;;;;0.30;0.30;;;;;;;7.27;88.63;101342.00;5014522;28;20762;-85
2021/05/28 00:38:49;;;;;;;0.30;0.30;;;;;;;7.22;89.09;101349.19;5026735;28;20069;-85
2021/05/28 00:41:22;;;;;;;0.20;0.20;;;;;;;7.29;88.76;101369.66;5013656;28;20058;-85
2021/05/28 00:43:49;;;;;;;0.30;0.30;;;;;;;7.29;88.72;101368.81;5018415;28;20402;-85
2021/05/28 00:46:17;;;;;;;;;;;;;;;7.25;88.75;101367.66;5027964;28;20054;-85
2021/05/28 00:49:36;;;;;;;0.75;0.30;;;;;;;7.28;88.62;101361.78;5017738;28;19925;-85
2021/05/28 00:52:09;;;;;;;0.60;0.30;;;;;;;7.20;88.68;101367.56;5030369;28;20053;-86
2021/05/28 00:54:43;;;;;;;0.28;0.28;;;;;;;7.24;88.83;101374.97;5030152;28;20053;-85
2021/05/28 00:57:16;;;;;;;0.43;0.20;;;;;;;7.14;89.04;101364.75;5019379;28;20502;-85
2021/05/28 00:59:51;;;;;;;0.40;0.40;;;;;;;7.13;88.99;101373.94;5017410;28;20042;-85
2021/05/28 01:02:19;;;;;;;0.30;0.30;;;;;;;6.96;88.97;101363.03;5031543;28;20045;-85
2021/05/28 01:04:52;;;;;;;0.30;0.30;;;;;;;7.07;89.68;101376.78;5016932;28;20048;-85
2021/05/28 01:07:20;;;;;;;1.35;0.35;;;;;;;6.96;89.32;101373.88;5013607;28;20441;-85
2021/05/28 01:09:50;;;;;;;0.25;0.25;;;;;;;6.67;88.96;101329.69;5021025;28;20046;-85
2021/05/28 01:12:43;;;;;;;0.50;0.30;;;;;;;6.85;89.62;101380.13;5015515;28;20478;-85
2021/05/28 01:16:04;;;;;;;0.30;0.30;;;;;;;6.87;89.68;101388.81;5024747;28;20046;-85
2021/05/28 01:18:42;;;;;;;0.30;0.30;;;;;;;6.89;89.01;101386.72;5026503;28;20054;-85
2021/05/28 01:21:15;;;;;;;0.30;0.30;;;;;;;6.84;89.47;101381.19;5016068;28;20061;-85
2021/05/28 01:23:48;;;;;;;0.30;0.30;;;;;;;6.92;89.56;101388.94;5019381;28;20056;-85
2021/05/28 01:26:23;;;;;;;0.30;0.30;;;;;;;6.78;89.77;101365.88;5025826;28;20049;-85
2021/05/28 01:28:56;;;;;;;0.30;0.30;;;;;;;6.79;90.07;101373.78;5029055;28;20065;-85
2021/05/28 01:32:09;;;;;;;0.30;0.30;;;;;;;6.84;89.72;101383.88;5024574;28;20418;-85
2021/05/28 01:34:37;;;;;;;0.63;0.40;;;;;;;6.84;89.02;101386.59;5012481;28;20061;-84
2021/05/28 01:37:15;;;;;;;0.30;0.30;;;;;;;6.76;89.40;101379.66;5027270;28;20049;-85
2021/05/28 01:39:51;;;;;;;0.30;0.30;;;;;;;6.78;89.84;101391.06;5014541;28;20434;-85
2021/05/28 01:42:19;;;;;;;0.60;0.30;;;;;;;6.69;89.29;101381.66;5022756;28;20054;-85
2021/05/28 01:45:54;;;;;;;0.30;0.30;;;;;;;6.69;89.69;101403.31;5014748;28;20030;-86
2021/05/28 01:48:22;;;;;;;0.30;0.30;;;;;;;6.59;89.91;101386.84;5015925;28;20054;-85
2021/05/28 01:50:55;;;;;;;0.30;0.30;;;;;;;6.72;89.66;101405.53;5021279;28;20076;-85
2021/05/28 01:53:28;;;;;;;0.47;0.32;;;;;;;6.60;90.13;101405.53;5012035;28;20053;-85
2021/05/28 01:55:57;;;;;;;0.40;0.40;;;;;;;6.40;90.10;101370.72;5024436;28;20058;-85
2021/05/28 01:58:26;;;;;;;0.52;0.40;;;;;;;6.58;90.26;101409.53;5032473;28;20051;-85
2021/05/28 02:00:58;;;;;;;0.30;0.30;;;;;;;6.67;90.51;101426.22;5025522;28;20053;-84
2021/05/28 02:03:31;;;;;;;0.47;0.38;;;;;;;6.63;90.38;101424.00;5017405;28;20041;-85
2021/05/28 02:06:04;;;;;;;0.50;0.40;;;;;;;6.64;90.15;101432.94;5023118;28;20046;-85
2021/05/28 02:08:37;;;;;;;0.30;0.30;;;;;;;6.58;89.96;101414.94;5020481;28;20056;-85
2021/05/28 02:11:11;;;;;;;0.50;0.40;;;;;;;6.66;90.13;101435.41;5027970;28;20406;-86
2021/05/28 02:13:46;;;;;;;0.60;0.38;;;;;;;6.62;90.00;101424.25;5029101;28;20050;-84
2021/05/28 02:16:19;;;;;;;0.30;0.30;;;;;;;6.60;90.39;101437.16;5025653;28;20041;-84
2021/05/28 02:18:52;;;;;;;0.50;0.50;;;;;;;6.61;90.08;101436.09;5027929;28;20054;-85
2021/05/28 02:21:20;;;;;;;1.50;0.60;;;;;;;6.59;90.28;101432.84;5023925;28;20053;-85
2021/05/28 02:23:52;;;;;;;0.32;0.30;;;;;;;6.56;89.81;101436.81;5021932;28;20046;-85
2021/05/28 02:27:19;;;;;;;0.65;0.40;;;;;;;6.58;89.94;101444.69;5012994;28;20057;-85
2021/05/28 02:29:53;;;;;;;0.30;0.30;;;;;;;6.50;90.34;101450.44;5023537;28;20052;-85
2021/05/28 02:33:24;;;;;;;0.57;0.40;;;;;;;6.42;89.98;101447.03;5013630;28;20057;-85
2021/05/28 02:35:59;;;;;;;0.77;0.40;;;;;;;6.43;90.07;101448.66;5026597;28;20046;-85
2021/05/28 02:38:32;;;;;;;0.50;0.50;;;;;;;6.42;89.86;101443.50;5016741;28;20048;-84
2021/05/28 02:40:59;;;;;;;;;;;;;;;6.44;90.66;101455.72;5014521;28;20042;-85
2021/05/28 02:43:32;;;;;;;0.65;0.40;;;;;;;6.43;90.70;101461.38;5011849;28;19922;-85
2021/05/28 02:46:00;;;;;;;;;;;;;;;6.37;90.40;101459.63;5044721;28;20045;-85
2021/05/28 02:48:33;;;;;;;0.40;0.40;;;;;;;6.30;90.04;101460.53;5018609;28;19936;-85
2021/05/28 02:51:22;;;;;;;0.63;0.50;;;;;;;6.30;90.48;101457.00;5021575;28;20049;-85
2021/05/28 02:53:55;;;;;;;0.43;0.43;;;;;;;6.28;90.76;101459.09;5013285;28;20117;-85
2021/05/28 02:56:27;;;;;;;0.75;0.50;;;;;;;6.10;90.14;101455.44;5024744;28;20064;-85
2021/05/28 02:59:00;;;;;;;0.47;0.45;;;;;;;6.19;90.33;101464.03;5027647;28;20489;-85
2021/05/28 03:01:34;;;;;;;0.50;0.50;;;;;;;6.19;90.61;101476.72;5022659;28;20058;-85
2021/05/28 03:08:33;;;;;;;;;;;;;;;6.17;90.55;101479.63;5024035;28;20049;-84
2021/05/28 03:11:06;;;;;;;0.52;0.50;;;;;;;6.09;90.40;101469.16;5022967;28;19926;-85
2021/05/28 03:13:34;;;;;;;0.50;0.50;;;;;;;6.17;90.53;101486.94;5016754;28;20056;-84
2021/05/28 03:16:05;;;;;;;;;;;;;;;6.16;90.49;101486.13;5017521;28;20050;-85
2021/05/28 03:18:47;;;;;;;0.60;0.50;;;;;;;6.10;90.09;101485.16;5015459;28;19928;-84
2021/05/28 03:21:23;;;;;;;0.50;0.50;;;;;;;6.21;90.16;101498.94;5031029;28;20046;-84
2021/05/28 03:23:53;;;;;;;0.63;0.50;;;;;;;6.20;90.21;101506.22;5027893;28;20053;-84
2021/05/28 03:26:22;;;;;;;0.70;0.50;;;;;;;6.16;89.88;101499.63;5020428;28;20053;-84
2021/05/28 03:28:57;;;;;;;0.47;0.47;;;;;;;6.19;89.99;101501.06;5027345;28;20081;-84
2021/05/28 03:31:25;;;;;;;0.88;0.47;;;;;;;6.07;90.15;101496.41;5021471;28;20052;-85
2021/05/28 03:34:52;;;;;;;0.70;0.55;;;;;;;6.19;90.19;101517.28;5015789;28;20060;-84
2021/05/28 03:37:26;;;;;;;0.40;0.40;;;;;;;5.99;89.96;101482.41;5021618;28;20502;-84
2021/05/28 03:39:54;;;;;;;1.23;0.47;;;;;;;6.17;89.56;101517.47;5023918;28;20520;-85
2021/05/28 03:42:27;;;;;;;0.50;0.50;;;;;;;6.17;90.11;101512.06;5016023;28;20046;-84
2021/05/28 03:44:54;;;;;;;;;;;;;;;6.25;90.11;101519.84;5031141;28;20521;-84
2021/05/28 03:47:22;;;;;;;0.60;0.50;;;;;;;6.24;89.98;101514.69;5028270;28;19921;-84
2021/05/28 03:54:21;;;;;;;0.77;0.60;;;;;;;6.32;89.90;101521.66;5019174;28;20045;-84
2021/05/28 03:57:03;;;;;;;0.63;0.50;;;;;;;6.25;89.47;101506.34;5016974;28;20423;-84
2021/05/28 03:59:30;;;;;;;0.60;0.50;;;;;;;6.37;89.66;101519.09;5017899;28;20045;-84
2021/05/28 04:02:54;;;;;;;0.60;0.50;;;;;;;6.38;89.72;101521.56;5023796;28;20300;-84
2021/05/28 04:05:52;;;;;;;0.43;0.43;;;;;;;6.36;89.43;101523.66;5019723;28;20046;-85
2021/05/28 04:08:24;;;;;;;1.73;0.60;;;;;;;6.37;90.21;101519.91;5020423;28;20054;-86
2021/05/28 04:10:58;;;;;;;0.40;0.40;;;;;;;6.38;89.61;101513.44;5029226;28;20044;-85
2021/05/28 04:13:31;;;;;;;0.95;0.52;;;;;;;6.04;89.49;101471.75;5022262;28;20050;-85
2021/05/28 04:16:05;;;;;;;1.10;0.60;;;;;;;6.41;89.11;101521.09;5029663;28;20056;-84
2021/05/28 04:18:37;;;;;;;0.40;0.40;;;;;;;6.43;89.50;101520.84;5024415;28;20060;-84
2021/05/28 04:21:09;;;;;;;0.50;0.50;;;;;;;6.38;89.85;101515.31;5036400;28;20064;-85
2021/05/28 04:23:37;;;;;;;0.63;0.50;;;;;;;6.19;89.11;101482.94;5024098;28;20045;-85
2021/05/28 04:26:11;;;;;;;0.68;0.50;;;;;;;6.32;89.66;101506.25;5025565;28;20045;-86
2021/05/28 04:28:44;;;;;;;0.57;0.57;;;;;;;6.38;89.99;101513.44;5022876;28;20060;-85
2021/05/28 04:31:12;;;;;;;0.90;0.60;;;;;;;6.53;89.09;101518.44;5021132;28;20042;-83
2021/05/28 04:33:47;;;;;;;0.50;0.50;;;;;;;6.64;89.83;101525.72;5023173;28;20037;-85
2021/05/28 04:36:20;;;;;;;0.77;0.60;;;;;;;6.89;88.95;101524.72;5021607;28;20434;-85
2021/05/28 04:47:47;;;;;;;0.52;0.50;;;;;;;7.77;85.71;101530.13;5018411;28;21603;-85
2021/05/28 04:50:16;;;;;;;0.40;0.40;;;;;;;7.81;86.34;101523.16;5015770;28;20042;-85
2021/05/28 04:53:50;;;;;;;0.80;0.50;;;;;;;7.73;85.01;101526.25;5017085;28;20058;-85
2021/05/28 04:56:18;;;;;;;0.40;0.40;;;;;;;7.71;85.02;101505.91;5026484;28;20057;-85
2021/05/28 04:58:51;;;;;;;0.30;0.30;;;;;;;8.08;84.62;101527.19;5033864;28;20053;-84
2021/05/28 05:01:23;;;;;;;0.30;0.30;;;;;;;8.01;83.50;101532.78;5030078;28;20042;-85
2021/05/28 05:03:56;;;;;;;;;;;;;;;8.10;83.92;101528.59;5021473;28;20049;-85
2021/05/28 05:06:29;;;;;;;0.40;0.40;;;;;;;9.14;80.75;101513.00;5015373;28;20401;-86
2021/05/28 05:09:54;;;;;;;0.40;0.40;;;;;;;11.37;76.64;101517.63;5022866;28;20409;-86
2021/05/28 05:12:27;;;;;;;1.65;0.45;;;;;;;12.89;67.68;101469.34;5013657;28;20053;-86
2021/05/28 05:14:55;;;;;;;;;;;;;;;14.04;64.33;101504.22;5015231;28;20045;-86
2021/05/28 05:17:27;;;;;;;0.40;0.40;;;;;;;14.88;65.74;101515.09;5013728;28;19921;-86
2021/05/28 05:20:02;;;;;;;0.30;0.30;;;;;;;15.35;63.51;101500.91;5032635;28;20049;-86
2021/05/28 05:22:30;;;;;;;0.35;0.35;;;;;;;15.23;59.49;101501.31;5029379;28;20050;-86
2021/05/28 05:25:03;;;;;;;0.30;0.30;;;;;;;14.95;56.24;101506.53;5023427;28;20516;-86
2021/05/28 05:27:31;;;;;;;0.28;0.28;;;;;;;14.37;57.95;101507.28;5036728;28;20065;-86
2021/05/28 05:30:11;;;;;;;0.40;0.40;;;;;;;14.59;61.66;101520.53;5013550;28;20049;-86
2021/05/28 05:32:38;;;;;;;0.30;0.30;;;;;;;15.25;59.96;101518.31;5012297;28;20058;-86
2021/05/28 05:35:08;;;;;;;0.40;0.40;;;;;;;14.99;59.07;101512.28;5013180;28;20058;-87
2021/05/28 05:37:41;;;;;;;0.28;0.28;;;;;;;14.21;60.88;101525.72;5016007;28;20053;-86
2021/05/28 05:40:14;;;;;;;0.28;0.22;;;;;;;12.85;65.32;101531.09;5014993;28;20053;-86
2021/05/28 05:42:42;;;;;;;0.30;0.30;;;;;;;11.65;68.65;101520.22;5022956;28;20077;-86
2021/05/28 05:45:16;;;;;;;0.25;0.25;;;;;;;11.01;71.38;101541.94;5013089;28;20580;-87
2021/05/28 05:47:44;;;;;;;0.40;0.30;;;;;;;10.76;72.74;101542.56;5012823;28;20133;-86
2021/05/28 05:50:15;;;;;;;0.47;0.30;;;;;;;11.11;73.95;101535.72;5018073;28;20049;-85
2021/05/28 05:52:48;;;;;;;0.38;0.38;;;;;;;11.08;70.07;101543.63;5012736;28;20374;-86
2021/05/28 05:55:16;;;;;;;;;;;;;;;10.76;72.57;101549.91;5014671;28;20517;-86
2021/05/28 05:57:49;;;;;;;0.70;0.40;;;;;;;10.82;75.81;101543.44;5013235;28;20285;-85
2021/05/28 06:00:17;;;;;;;0.22;0.22;;;;;;;10.42;73.15;101550.97;5028142;28;20050;-86
2021/05/28 06:02:50;;;;;;;0.30;0.30;;;;;;;10.64;73.95;101550.09;5020792;28;20045;-86
2021/05/28 06:05:24;;;;;;;0.55;0.30;;;;;;;10.44;73.53;101553.44;5032602;28;20064;-86
2021/05/28 06:08:47;;;;;;;0.30;0.30;;;;;;;10.02;76.99;101552.97;5029059;28;20061;-86
2021/05/28 06:11:20;;;;;;;0.30;0.30;;;;;;;10.18;76.43;101555.88;5011955;28;20045;-86
2021/05/28 06:13:53;;;;;;;0.50;0.32;;;;;;;10.24;78.27;101562.19;5013116;28;20057;-86
2021/05/28 06:16:26;;;;;;;0.30;0.30;;;;;;;10.19;73.43;101552.91;5021603;28;20133;-86
2021/05/28 06:18:59;;;;;;;0.47;0.35;;;;;;;10.36;76.33;101560.97;5012539;28;20053;-87
2021/05/28 06:21:33;;;;;;;0.30;0.30;;;;;;;10.42;76.76;101567.28;5015968;28;20045;-86
2021/05/28 06:24:01;;;;;;;0.45;0.40;;;;;;;10.47;77.97;101558.38;5014766;28;20057;-85
2021/05/28 06:26:35;;;;;;;0.50;0.50;;;;;;;10.77;77.25;101560.56;5027323;28;20049;-85
2021/05/28 06:33:08;;;;;;;0.30;0.30;;;;;;;10.87;76.34;101578.88;5023461;28;20049;-85
2021/05/28 06:35:59;;;;;;;0.40;0.40;;;;;;;11.07;75.69;101580.91;5021623;28;20058;-86
2021/05/28 06:38:32;;;;;;;0.45;0.30;;;;;;;11.01;74.30;101571.91;5029546;28;20049;-86
2021/05/28 06:41:10;;;;;;;0.50;0.30;;;;;;;11.13;75.41;101590.78;5017918;28;20844;-85
2021/05/28 06:43:42;;;;;;;0.40;0.40;;;;;;;11.43;76.11;101589.34;5021045;28;20046;-87
2021/05/28 06:46:10;;;;;;;;;;;;;;;11.42;76.69;101593.16;5021172;28;20065;-86
2021/05/28 06:48:43;;;;;;;0.35;0.35;;;;;;;11.32;75.35;101593.91;5013531;28;20373;-85
2021/05/28 06:51:15;;;;;;;0.30;0.30;;;;;;;11.54;75.66;101595.69;5022778;28;20060;-87
2021/05/28 06:53:52;;;;;;;0.35;0.35;;;;;;;11.37;75.19;101593.94;5017437;28;20413;-85
2021/05/28 07:00:52;;;;;;;0.75;0.40;;;;;;;11.16;74.59;101598.44;5033291;28;20387;-85
2021/05/28 07:03:25;;;;;;;1.38;0.50;;;;;;;11.49;74.99;101601.09;5029626;28;20041;-85
2021/05/28 07:05:53;;;;;;;1.23;0.40;;;;;;;11.90;73.90;101601.31;5023310;28;20033;-85
2021/05/28 07:08:30;;;;;;;0.40;0.40;;;;;;;11.82;73.25;101567.19;5012279;28;20058;-85
2021/05/28 07:14:44;;;;;;;0.85;0.50;;;;;;;12.02;75.20;101615.56;5017491;28;19928;-85
2021/05/28 07:17:18;;;;;;;0.35;0.35;;;;;;;11.80;74.50;101607.53;5024294;28;20049;-86
2021/05/28 07:19:51;;;;;;;0.90;0.50;;;;;;;11.83;75.68;101620.63;5018363;28;20077;-85
2021/05/28 07:22:18;;;;;;;0.70;0.50;;;;;;;11.67;73.24;101617.03;5024465;28;20053;-86
2021/05/28 07:24:46;;;;;;;;;;;;;;;11.45;72.79;101625.34;5012133;28;20049;-85
2021/05/28 07:27:16;;;;;;;0.55;0.55;;;;;;;10.73;75.38;101583.94;5016720;28;20301;-85
2021/05/28 07:29:49;;;;;;;0.40;0.40;;;;;;;11.01;75.08;101636.47;5026289;28;20046;-84
2021/05/28 07:32:16;;;;;;;0.63;0.47;;;;;;;11.03;74.80;101639.72;5024274;28;20042;-84
2021/05/28 07:34:49;;;;;;;0.75;0.52;;;;;;;11.14;76.69;101638.72;5031155;28;20428;-86
2021/05/28 07:37:17;;;;;;;;;;;;;;;11.14;74.92;101646.91;5031407;28;20052;-84
2021/05/28 07:40:27;;;;;;;0.57;0.40;;;;;;;11.23;72.71;101644.53;5018688;28;20404;-84
2021/05/28 07:42:57;;;;;;;0.40;0.40;;;;;;;11.26;76.46;101645.91;5027857;28;20046;-85
2021/05/28 07:45:31;;;;;;;0.43;0.43;;;;;;;10.98;74.33;101656.84;5033182;28;20053;-85
2021/05/28 07:48:09;;;;;;;0.47;0.40;;;;;;;11.16;72.92;101658.38;5027079;28;20061;-85
2021/05/28 07:50:48;;;;;;;0.47;0.35;;;;;;;11.06;73.37;101656.38;5021941;28;20061;-85
2021/05/28 07:53:24;;;;;;;0.38;0.38;;;;;;;10.89;73.16;101661.94;5024059;28;20050;-86
2021/05/28 07:55:52;;;;;;;0.30;0.30;;;;;;;10.85;74.02;101651.81;5025740;28;20060;-87
2021/05/28 07:58:25;;;;;;;0.40;0.40;;;;;;;10.64;73.68;101639.91;5035065;28;20417;-86
2021/05/28 08:00:58;;;;;;;0.20;0.20;;;;;;;10.67;71.86;101642.13;5018559;28;20059;-86
2021/05/28 08:03:31;;;;;;;0.50;0.50;;;;;;;11.22;73.46;101649.16;5015269;28;20042;-86
2021/05/28 08:05:58;;;;;;;;;;;;;;;11.82;71.63;101651.75;5020923;28;20054;-86
2021/05/28 08:08:27;;;;;;;;;;;;;;;11.94;69.86;101659.72;5019793;28;19921;-85
2021/05/28 08:11:17;;;;;;;0.73;0.40;;;;;;;11.79;70.34;101662.34;5021356;28;19929;-87
2021/05/28 08:13:50;;;;;;;0.60;0.50;;;;;;;11.37;72.07;101651.16;5021854;28;20053;-85
2021/05/28 08:16:24;;;;;;;0.52;0.47;;;;;;;11.36;71.28;101659.63;5021552;28;20888;-86
2021/05/28 08:18:58;;;;;;;0.50;0.40;;;;;;;11.21;73.81;101663.88;5022199;28;20046;-86
2021/05/28 08:21:26;;;;;;;0.40;0.40;;;;;;;11.26;73.45;101654.91;5021217;28;20060;-85
2021/05/28 08:23:58;;;;;;;0.40;0.40;;;;;;;11.42;73.73;101658.59;5035276;28;20053;-85
2021/05/28 08:26:26;;;;;;;;;;;;;;;11.46;72.30;101651.53;5036453;28;20060;-85
2021/05/28 08:29:00;;;;;;;0.40;0.40;;;;;;;11.66;73.53;101647.28;5029170;28;19928;-86
2021/05/28 08:31:28;;;;;;;0.30;0.30;;;;;;;11.71;70.70;101629.03;5023738;28;20061;-85
2021/05/28 08:34:04;;;;;;;0.40;0.40;;;;;;;11.45;71.22;101643.59;5032212;28;20402;-87
2021/05/28 08:36:37;;;;;;;0.45;0.43;;;;;;;11.56;73.74;101646.13;5029062;28;20049;-86
2021/05/28 08:39:10;;;;;;;0.35;0.30;;;;;;;11.63;71.79;101631.44;5017038;28;20065;-86
2021/05/28 08:41:42;;;;;;;;;;;;;;;11.91;70.16;101649.31;5021158;28;20052;-85
2021/05/28 08:44:21;;;;;;;0.40;0.40;;;;;;;11.78;70.33;101617.91;5023232;28;19929;-85
2021/05/28 08:46:51;;;;;;;0.70;0.43;;;;;;;12.04;68.99;101637.13;5018559;28;20042;-86
2021/05/28 08:49:20;;;;;;;0.38;0.30;;;;;;;11.96;70.77;101633.03;5020426;28;20046;-85
2021/05/28 08:51:54;;;;;;;0.50;0.40;;;;;;;11.63;71.78;101656.81;5028809;28;20049;-86
2021/05/28 08:54:51;;;;;;;0.43;0.40;;;;;;;11.71;69.81;101658.19;5022289;28;20049;-85
2021/05/28 08:58:20;;;;;;;0.45;0.45;;;;;;;11.70;71.89;101665.56;5015226;28;20057;-87
2021/05/28 09:00:53;;;;;;;0.40;0.40;;;;;;;11.60;71.13;101662.78;5031706;28;20060;-86
2021/05/28 09:04:03;;;;;;;0.65;0.45;;;;;;;11.94;69.88;101667.91;5020547;28;20494;-85
2021/05/28 09:06:38;;;;;;;0.65;0.50;;;;;;;11.43;69.91;101676.56;5023662;28;20049;-84
2021/05/28 09:09:12;;;;;;;0.40;0.40;;;;;;;11.35;71.97;101661.53;5019403;28;20125;-86
2021/05/28 09:11:56;;;;;;;0.40;0.40;;;;;;;11.44;73.07;101664.59;5023702;28;20045;-85
2021/05/28 09:14:32;;;;;;;0.38;0.38;;;;;;;11.12;70.39;101676.31;5021568;28;20046;-85
2021/05/28 09:17:12;;;;;;;0.55;0.40;;;;;;;11.03;69.76;101675.13;5028678;28;20044;-86
2021/05/28 09:20:11;;;;;;;0.40;0.40;;;;;;;11.27;71.74;101686.53;5018166;28;20057;-85
2021/05/28 09:23:11;;;;;;;0.43;0.38;;;;;;;11.57;71.28;101679.66;5029763;28;20058;-85
2021/05/28 09:26:01;;;;;;;0.30;0.30;;;;;;;11.53;70.96;101684.00;5027365;28;20037;-85
2021/05/28 09:28:43;;;;;;;0.85;0.40;;;;;;;11.39;70.40;101661.81;5028438;28;20064;-84
2021/05/28 09:31:20;;;;;;;0.35;0.35;;;;;;;11.21;71.50;101695.72;5030918;28;20061;-86
2021/05/28 09:34:09;;;;;;;0.30;0.30;;;;;;;11.05;72.16;101695.59;5033678;28;20045;-85
2021/05/28 09:36:45;;;;;;;0.40;0.40;;;;;;;10.63;74.02;101665.50;5023169;28;20045;-85
2021/05/28 09:39:14;;;;;;;0.40;0.35;;;;;;;11.18;75.29;101690.81;5026946;28;20049;-90
2021/05/28 09:41:48;;;;;;;0.40;0.30;;;;;;;11.59;71.62;101677.50;5026322;28;20054;-90
2021/05/28 09:44:49;;;;;;;0.45;0.43;;;;;;;12.02;70.20;101686.50;5024661;28;20072;-87
2021/05/28 09:47:47;;;;;;;0.40;0.40;;;;;;;12.51;70.02;101688.09;5029055;28;20513;-91
2021/05/28 09:50:16;;;;;;;0.70;0.30;;;;;;;11.85;66.59;101640.31;5015461;28;20069;-90
2021/05/28 09:52:44;;;;;;;0.40;0.40;;;;;;;11.61;68.83;101680.78;5027744;28;20054;-91
2021/05/28 09:55:15;;;;;;;0.30;0.30;;;;;;;11.54;70.58;101675.53;5016253;28;20050;-91
2021/05/28 09:57:45;;;;;;;0.40;0.32;;;;;;;11.32;69.24;101640.22;5023301;28;20061;-91
2021/05/28 10:00:25;;;;;;;0.40;0.30;;;;;;;11.27;71.41;101680.25;5014932;28;20050;-91
2021/05/28 10:03:11;;;;;;;0.68;0.50;;;;;;;11.41;71.61;101665.09;5023565;28;20057;-91
2021/05/28 10:06:42;;;;;;;0.30;0.30;;;;;;;11.38;70.87;101690.97;5018605;28;20051;-91
2021/05/28 10:10:01;;;;;;;0.75;0.47;;;;;;;11.20;71.48;101691.38;5016254;28;20049;-90
2021/05/28 10:12:36;;;;;;;0.30;0.30;;;;;;;11.32;73.47;101685.75;5012884;28;20054;-84
2021/05/28 10:15:12;;;;;;;0.40;0.40;;;;;;;11.18;73.01;101680.72;5014355;28;20482;-85
2021/05/28 10:17:40;;;;;;;0.30;0.30;;;;;;;11.19;71.58;101679.63;5012431;28;20498;-84
2021/05/28 10:20:14;;;;;;;0.32;0.32;;;;;;;11.47;71.84;101674.94;5014085;28;20521;-85
2021/05/28 10:22:47;;;;;;;0.30;0.30;;;;;;;11.80;73.17;101678.44;5016157;28;20045;-87
2021/05/28 10:25:23;;;;;;;0.43;0.35;;;;;;;11.91;71.12;101644.69;5024814;28;20050;-92
2021/05/28 10:27:58;;;;;;;0.40;0.40;;;;;;;12.20;69.03;101614.28;5028752;28;20410;-93
2021/05/28 10:30:28;;;;;;;0.30;0.30;;;;;;;12.22;69.26;101644.03;5018152;28;20053;-93
2021/05/28 10:33:19;;;;;;;0.30;0.30;;;;;;;12.26;67.05;101639.69;5029643;28;20050;-91
2021/05/28 10:35:54;;;;;;;0.30;0.30;;;;;;;11.81;68.71;101600.19;5020786;28;20065;-92
2021/05/28 10:38:41;;;;;;;0.30;0.28;;;;;;;12.13;69.67;101615.63;5027728;28;20045;-91
2021/05/28 10:41:32;;;;;;;0.30;0.30;;;;;;;12.64;70.52;101664.09;5015710;28;20049;-91
2021/05/28 10:44:15;;;;;;;0.68;0.30;;;;;;;12.56;68.58;101621.75;5015629;28;20049;-92
2021/05/28 10:47:21;;;;;;;0.32;0.32;;;;;;;12.99;71.14;101665.25;5021383;28;20054;-93
2021/05/28 10:50:08;;;;;;;0.40;0.40;;;;;;;12.86;68.03;101667.41;5017379;28;20046;-89
2021/05/28 10:52:37;;;;;;;0.40;0.40;;;;;;;12.48;68.18;101582.13;5031182;28;20524;-93
2021/05/28 10:55:09;;;;;;;0.38;0.38;;;;;;;12.79;69.56;101633.25;5025420;28;20057;-92
2021/05/28 10:57:51;;;;;;;0.28;0.28;;;;;;;12.67;67.61;101596.09;5015010;28;20042;-91
2021/05/28 11:07:59;;;;;;;0.30;0.30;;;;;;;12.19;69.69;101634.50;5018176;28;20049;-92
2021/05/28 11:10:27;;;;;;;0.40;0.40;;;;;;;11.74;70.80;101611.34;5027751;28;20073;-92
2021/05/28 11:14:04;;;;;;;0.35;0.35;;;;;;;12.24;71.88;101660.97;5030671;28;20053;-92
2021/05/28 11:16:59;;;;;;;;;;;;;;;12.39;71.91;101652.03;5023583;28;20053;-91
2021/05/28 11:20:04;;;;;;;0.40;0.40;;;;;;;12.67;71.27;101649.91;5013697;28;19921;-93
2021/05/28 11:22:36;;;;;;;0.40;0.40;;;;;;;12.78;69.54;101645.28;5032035;28;20410;-92
2021/05/28 11:25:16;;;;;;;0.52;0.40;;;;;;;12.21;69.01;101577.72;5029072;28;20046;-92
2021/05/28 11:27:57;;;;;;;0.38;0.38;;;;;;;12.39;69.45;101613.81;5030667;28;20509;-91
2021/05/28 11:30:46;;;;;;;0.43;0.30;;;;;;;12.78;68.50;101656.22;5025578;28;20057;-91
2021/05/28 11:33:37;;;;;;;0.43;0.30;;;;;;;12.69;69.29;101647.72;5028536;28;20045;-92
2021/05/28 11:36:42;;;;;;;0.40;0.40;;;;;;;12.26;70.69;101587.81;5013057;28;20061;-92
2021/05/28 11:39:41;;;;;;;0.30;0.30;;;;;;;12.80;70.45;101654.00;5018906;28;20438;-92
2021/05/28 11:42:10;;;;;;;0.40;0.30;;;;;;;12.64;70.19;101623.94;5020724;28;20057;-93
2021/05/28 11:44:38;;;;;;;0.43;0.30;;;;;;;12.59;68.45;101572.88;5023330;28;20050;-93
2021/05/28 11:47:07;;;;;;;0.65;0.40;;;;;;;13.09;68.46;101625.09;5013449;28;20422;-93
2021/05/28 11:49:38;;;;;;;0.35;0.30;;;;;;;13.01;67.81;101608.41;5027936;28;20050;-92
2021/05/28 11:52:12;;;;;;;0.45;0.40;;;;;;;13.52;68.29;101630.28;5019889;28;20057;-83
2021/05/28 11:54:40;;;;;;;0.57;0.30;;;;;;;13.72;68.03;101609.44;5011720;28;20057;-91
2021/05/28 11:57:13;;;;;;;0.40;0.40;;;;;;;14.09;62.85;101638.31;5015886;28;20057;-90
2021/05/28 12:03:13;;;;;;;0.63;0.50;;;;;;;13.56;64.55;101557.50;5021967;28;20049;-91
2021/05/28 12:10:08;;;;;;;0.40;0.40;;;;;;;14.38;64.37;101610.25;5022847;28;20044;-90
2021/05/28 12:13:01;;;;;;;0.43;0.38;;;;;;;14.57;65.57;101621.34;5012453;28;20046;-92
2021/05/28 12:15:32;;;;;;;0.40;0.40;;;;;;;14.50;65.12;101627.16;5015847;28;20746;-86
2021/05/28 12:18:01;;;;;;;0.52;0.30;;;;;;;14.16;67.31;101594.22;5029513;28;20054;-87
2021/05/28 12:20:32;;;;;;;0.40;0.30;;;;;;;13.79;63.86;101585.31;5026707;28;20049;-85
2021/05/28 12:23:10;;;;;;;0.50;0.20;;;;;;;14.04;64.41;101619.97;5027985;28;20037;-86
2021/05/28 12:25:46;;;;;;;0.20;0.20;;;;;;;13.93;66.37;101580.06;5027680;28;20050;-86
2021/05/28 12:28:25;;;;;;;0.30;0.30;;;;;;;14.12;67.32;101608.44;5016881;28;20053;-86
2021/05/28 12:30:56;;;;;;;0.22;0.22;;;;;;;14.03;68.16;101606.56;5014930;28;20058;-86
2021/05/28 12:33:33;;;;;;;0.40;0.40;;;;;;;14.26;67.59;101616.84;5014269;28;20052;-86
2021/05/28 12:36:04;;;;;;;0.60;0.50;;;;;;;14.29;66.98;101607.25;5028139;28;20061;-87
2021/05/28 12:39:05;;;;;;;0.47;0.40;;;;;;;14.31;65.90;101601.50;5026075;28;20061;-86
2021/05/28 12:41:43;;;;;;;0.37;0.30;;;;;;;14.69;66.91;101599.91;5020705;28;20501;-86
2021/05/28 12:45:08;;;;;;;0.40;0.30;;;;;;;14.71;64.58;101575.81;5024554;28;20045;-86
2021/05/28 12:47:44;;;;;;;0.40;0.30;;;;;;;14.36;65.96;101596.00;5023897;28;20042;-85
2021/05/28 12:50:33;;;;;;;0.40;0.40;;;;;;;14.37;67.49;101581.22;5028635;28;20057;-86
2021/05/28 12:53:11;;;;;;;0.50;0.43;;;;;;;14.12;66.64;101589.28;5021304;28;20075;-86
2021/05/28 12:55:50;;;;;;;0.38;0.38;;;;;;;14.38;66.96;101597.34;5020695;28;20501;-86
2021/05/28 12:58:26;;;;;;;0.75;0.40;;;;;;;14.45;68.63;101599.78;5020019;28;20041;-86
2021/05/28 13:00:56;;;;;;;0.30;0.30;;;;;;;14.38;67.13;101588.34;5022321;28;20037;-84
2021/05/28 13:03:36;;;;;;;0.82;0.40;;;;;;;14.24;69.14;101599.09;5026624;28;20057;-85
2021/05/28 13:06:40;;;;;;;0.70;0.30;;;;;;;13.68;69.72;101587.28;5025906;28;20060;-85
2021/05/28 13:09:21;;;;;;;0.70;0.47;;;;;;;13.44;71.78;101601.56;5022906;28;20371;-84
2021/05/28 13:12:00;;;;;;;0.50;0.45;;;;;;;12.90;74.70;101611.16;5019833;28;20053;-86